KHUA/HUA METAR and TAF weather

Enter ICAO airport designator
Station Type Date Time Source
KHUA METAR 2019/10/18 10:58 UTC NOAA

KHUA 181058Z AUTO 00000KT 9SM CLR 05/04 A3000 RMK AO2 SLP161 T00530039


Station Type Date Time Source
KHUA Decoded METAR 2019/10/18 10:58 UTC NOAA

Station name not available
Oct 18, 2019 - 06:58 AM EDT / 2019.10.18 1058 UTC
Wind: Calm:0
Visibility: 9 mile(s):0
Sky conditions: clear
Temperature: 41.5 F (5.3 C)
Dew Point: 39.0 F (3.9 C)
Relative Humidity: 90%
Pressure (altimeter): 30 in. Hg (1015 hPa)
ob: KHUA 181058Z AUTO 00000KT 9SM CLR 05/04 A3000 RMK AO2 SLP161 T00530039
cycle: 11

Station Type Date Time Source
KHUA TAF UTC NOAA

Error!

Example: see airport list